sensor_id;sensor_type;location;lat;lon;timestamp;P1;durP1;ratioP1;P2;durP2;ratioP2
65835;SDS011;52595;51.608;7.216;2022-09-29T00:01:00;18.45;;;11.38;;
65835;SDS011;52595;51.608;7.216;2022-09-29T00:03:28;18.85;;;11.77;;
65835;SDS011;52595;51.608;7.216;2022-09-29T00:05:54;19.55;;;11.73;;
65835;SDS011;52595;51.608;7.216;2022-09-29T00:08:21;15.98;;;10.98;;
65835;SDS011;52595;51.608;7.216;2022-09-29T00:10:48;18.92;;;11.35;;
65835;SDS011;52595;51.608;7.216;2022-09-29T00:13:14;16.20;;;10.77;;
65835;SDS011;52595;51.608;7.216;2022-09-29T00:15:40;18.35;;;11.35;;
65835;SDS011;52595;51.608;7.216;2022-09-29T00:18:06;19.13;;;10.98;;
65835;SDS011;52595;51.608;7.216;2022-09-29T00:20:32;16.88;;;11.07;;
65835;SDS011;52595;51.608;7.216;2022-09-29T00:22:58;17.50;;;11.10;;
65835;SDS011;52595;51.608;7.216;2022-09-29T00:25:24;19.02;;;10.82;;
65835;SDS011;52595;51.608;7.216;2022-09-29T00:27:49;19.65;;;11.68;;
65835;SDS011;52595;51.608;7.216;2022-09-29T00:30:15;17.98;;;11.38;;
65835;SDS011;52595;51.608;7.216;2022-09-29T00:32:40;22.40;;;12.20;;
65835;SDS011;52595;51.608;7.216;2022-09-29T00:35:05;20.77;;;12.02;;
65835;SDS011;52595;51.608;7.216;2022-09-29T00:37:32;23.15;;;12.35;;
65835;SDS011;52595;51.608;7.216;2022-09-29T00:39:58;23.20;;;12.63;;
65835;SDS011;52595;51.608;7.216;2022-09-29T00:42:25;24.10;;;13.15;;
65835;SDS011;52595;51.608;7.216;2022-09-29T00:45:05;24.88;;;13.98;;
65835;SDS011;52595;51.608;7.216;2022-09-29T00:47:38;24.60;;;13.90;;
65835;SDS011;52595;51.608;7.216;2022-09-29T00:50:22;25.02;;;13.23;;
65835;SDS011;52595;51.608;7.216;2022-09-29T00:53:11;23.30;;;13.30;;
65835;SDS011;52595;51.608;7.216;2022-09-29T00:55:42;22.58;;;12.88;;
65835;SDS011;52595;51.608;7.216;2022-09-29T00:58:13;20.48;;;11.77;;
65835;SDS011;52595;51.608;7.216;2022-09-29T01:01:01;22.45;;;12.55;;
65835;SDS011;52595;51.608;7.216;2022-09-29T01:03:30;20.30;;;12.55;;
65835;SDS011;52595;51.608;7.216;2022-09-29T01:06:08;22.23;;;12.13;;
65835;SDS011;52595;51.608;7.216;2022-09-29T01:08:58;18.67;;;11.27;;
65835;SDS011;52595;51.608;7.216;2022-09-29T01:11:26;21.33;;;11.85;;
65835;SDS011;52595;51.608;7.216;2022-09-29T01:13:51;18.67;;;11.85;;
65835;SDS011;52595;51.608;7.216;2022-09-29T01:16:19;21.63;;;11.27;;
65835;SDS011;52595;51.608;7.216;2022-09-29T01:18:44;22.05;;;11.52;;
65835;SDS011;52595;51.608;7.216;2022-09-29T01:26:46;21.20;;;12.32;;
65835;SDS011;52595;51.608;7.216;2022-09-29T01:43:32;21.35;;;12.23;;
65835;SDS011;52595;51.608;7.216;2022-09-29T01:46:06;21.25;;;12.23;;
65835;SDS011;52595;51.608;7.216;2022-09-29T01:48:34;23.98;;;13.25;;
65835;SDS011;52595;51.608;7.216;2022-09-29T01:51:05;26.58;;;13.70;;
65835;SDS011;52595;51.608;7.216;2022-09-29T01:53:43;30.73;;;13.45;;
65835;SDS011;52595;51.608;7.216;2022-09-29T01:56:13;25.85;;;13.07;;
65835;SDS011;52595;51.608;7.216;2022-09-29T01:59:04;27.30;;;13.82;;
65835;SDS011;52595;51.608;7.216;2022-09-29T02:01:41;26.13;;;13.35;;
65835;SDS011;52595;51.608;7.216;2022-09-29T02:06:53;21.60;;;12.25;;
65835;SDS011;52595;51.608;7.216;2022-09-29T02:09:41;20.23;;;12.07;;
65835;SDS011;52595;51.608;7.216;2022-09-29T02:12:11;21.27;;;11.70;;
65835;SDS011;52595;51.608;7.216;2022-09-29T02:14:44;26.27;;;12.98;;
65835;SDS011;52595;51.608;7.216;2022-09-29T02:17:15;21.45;;;12.60;;
65835;SDS011;52595;51.608;7.216;2022-09-29T02:19:45;20.75;;;11.25;;
65835;SDS011;52595;51.608;7.216;2022-09-29T02:22:13;22.73;;;11.65;;
65835;SDS011;52595;51.608;7.216;2022-09-29T02:24:38;22.27;;;11.90;;
65835;SDS011;52595;51.608;7.216;2022-09-29T02:27:04;19.27;;;11.45;;
65835;SDS011;52595;51.608;7.216;2022-09-29T02:29:30;20.17;;;10.82;;
65835;SDS011;52595;51.608;7.216;2022-09-29T02:31:57;16.85;;;10.82;;
65835;SDS011;52595;51.608;7.216;2022-09-29T02:34:26;21.35;;;11.02;;
65835;SDS011;52595;51.608;7.216;2022-09-29T02:39:47;19.00;;;10.52;;
65835;SDS011;52595;51.608;7.216;2022-09-29T02:59:02;18.70;;;10.82;;
65835;SDS011;52595;51.608;7.216;2022-09-29T03:01:31;18.42;;;11.00;;
65835;SDS011;52595;51.608;7.216;2022-09-29T03:03:58;19.17;;;10.77;;
65835;SDS011;52595;51.608;7.216;2022-09-29T03:06:24;19.08;;;11.05;;
65835;SDS011;52595;51.608;7.216;2022-09-29T03:08:50;21.15;;;10.73;;
65835;SDS011;52595;51.608;7.216;2022-09-29T03:11:15;22.50;;;10.52;;
65835;SDS011;52595;51.608;7.216;2022-09-29T03:13:40;21.75;;;11.93;;
65835;SDS011;52595;51.608;7.216;2022-09-29T03:16:06;19.23;;;10.98;;
65835;SDS011;52595;51.608;7.216;2022-09-29T03:18:31;19.40;;;11.27;;
65835;SDS011;52595;51.608;7.216;2022-09-29T03:20:57;22.48;;;11.30;;
65835;SDS011;52595;51.608;7.216;2022-09-29T03:23:22;19.45;;;10.77;;
65835;SDS011;52595;51.608;7.216;2022-09-29T03:25:47;19.70;;;11.30;;
65835;SDS011;52595;51.608;7.216;2022-09-29T03:28:13;18.88;;;11.20;;
65835;SDS011;52595;51.608;7.216;2022-09-29T03:30:40;19.08;;;11.02;;
65835;SDS011;52595;51.608;7.216;2022-09-29T03:33:06;20.10;;;11.77;;
65835;SDS011;52595;51.608;7.216;2022-09-29T03:35:31;21.13;;;11.77;;
65835;SDS011;52595;51.608;7.216;2022-09-29T03:37:57;22.00;;;11.52;;
65835;SDS011;52595;51.608;7.216;2022-09-29T03:40:25;20.45;;;11.80;;
65835;SDS011;52595;51.608;7.216;2022-09-29T03:42:51;21.45;;;12.02;;
65835;SDS011;52595;51.608;7.216;2022-09-29T03:45:17;20.17;;;11.98;;
65835;SDS011;52595;51.608;7.216;2022-09-29T03:47:42;20.35;;;12.18;;
65835;SDS011;52595;51.608;7.216;2022-09-29T03:50:07;19.75;;;11.60;;
65835;SDS011;52595;51.608;7.216;2022-09-29T03:52:33;26.75;;;12.52;;
65835;SDS011;52595;51.608;7.216;2022-09-29T03:54:58;22.83;;;12.50;;
65835;SDS011;52595;51.608;7.216;2022-09-29T03:57:24;21.13;;;12.18;;
65835;SDS011;52595;51.608;7.216;2022-09-29T03:59:49;20.80;;;11.95;;
65835;SDS011;52595;51.608;7.216;2022-09-29T04:02:15;23.02;;;11.88;;
65835;SDS011;52595;51.608;7.216;2022-09-29T04:04:42;22.15;;;12.55;;
65835;SDS011;52595;51.608;7.216;2022-09-29T04:07:08;28.00;;;14.07;;
65835;SDS011;52595;51.608;7.216;2022-09-29T04:09:33;29.70;;;16.88;;
65835;SDS011;52595;51.608;7.216;2022-09-29T04:11:59;31.58;;;17.92;;
65835;SDS011;52595;51.608;7.216;2022-09-29T04:14:24;38.63;;;19.33;;
65835;SDS011;52595;51.608;7.216;2022-09-29T04:16:50;31.23;;;16.83;;
65835;SDS011;52595;51.608;7.216;2022-09-29T04:19:15;32.72;;;17.25;;
65835;SDS011;52595;51.608;7.216;2022-09-29T04:21:40;32.83;;;16.83;;
65835;SDS011;52595;51.608;7.216;2022-09-29T04:24:06;31.25;;;16.45;;
65835;SDS011;52595;51.608;7.216;2022-09-29T04:26:31;30.90;;;15.80;;
65835;SDS011;52595;51.608;7.216;2022-09-29T04:28:58;25.08;;;14.88;;
65835;SDS011;52595;51.608;7.216;2022-09-29T04:31:23;24.65;;;13.85;;
65835;SDS011;52595;51.608;7.216;2022-09-29T04:33:48;24.30;;;13.75;;
65835;SDS011;52595;51.608;7.216;2022-09-29T04:36:14;23.60;;;13.82;;
65835;SDS011;52595;51.608;7.216;2022-09-29T04:38:39;27.75;;;13.50;;
65835;SDS011;52595;51.608;7.216;2022-09-29T04:41:04;23.58;;;13.77;;
65835;SDS011;52595;51.608;7.216;2022-09-29T04:43:30;24.20;;;14.18;;
65835;SDS011;52595;51.608;7.216;2022-09-29T04:46:05;28.52;;;14.35;;
65835;SDS011;52595;51.608;7.216;2022-09-29T04:48:32;32.90;;;15.77;;
65835;SDS011;52595;51.608;7.216;2022-09-29T04:50:58;31.75;;;15.65;;
65835;SDS011;52595;51.608;7.216;2022-09-29T04:53:23;34.75;;;16.83;;
65835;SDS011;52595;51.608;7.216;2022-09-29T04:55:49;31.48;;;15.32;;
65835;SDS011;52595;51.608;7.216;2022-09-29T04:58:14;32.75;;;15.80;;
65835;SDS011;52595;51.608;7.216;2022-09-29T05:00:39;32.72;;;15.80;;
65835;SDS011;52595;51.608;7.216;2022-09-29T05:03:05;29.75;;;15.02;;
65835;SDS011;52595;51.608;7.216;2022-09-29T05:05:30;26.83;;;14.68;;
65835;SDS011;52595;51.608;7.216;2022-09-29T05:07:55;29.98;;;14.57;;
65835;SDS011;52595;51.608;7.216;2022-09-29T05:10:23;29.75;;;14.57;;
65835;SDS011;52595;51.608;7.216;2022-09-29T05:12:49;27.10;;;13.60;;
65835;SDS011;52595;51.608;7.216;2022-09-29T05:15:16;26.13;;;13.38;;
65835;SDS011;52595;51.608;7.216;2022-09-29T05:17:42;23.38;;;13.10;;
65835;SDS011;52595;51.608;7.216;2022-09-29T05:20:07;26.45;;;15.10;;
65835;SDS011;52595;51.608;7.216;2022-09-29T05:22:33;27.75;;;14.70;;
65835;SDS011;52595;51.608;7.216;2022-09-29T05:24:58;25.23;;;14.52;;
65835;SDS011;52595;51.608;7.216;2022-09-29T05:27:24;27.20;;;14.00;;
65835;SDS011;52595;51.608;7.216;2022-09-29T05:29:49;23.23;;;13.75;;
65835;SDS011;52595;51.608;7.216;2022-09-29T05:32:15;27.38;;;14.02;;
65835;SDS011;52595;51.608;7.216;2022-09-29T05:34:40;24.70;;;13.50;;
65835;SDS011;52595;51.608;7.216;2022-09-29T05:37:06;22.25;;;12.93;;
65835;SDS011;52595;51.608;7.216;2022-09-29T05:39:31;23.70;;;13.35;;
65835;SDS011;52595;51.608;7.216;2022-09-29T05:41:59;23.95;;;13.13;;
65835;SDS011;52595;51.608;7.216;2022-09-29T05:44:25;28.77;;;14.68;;
65835;SDS011;52595;51.608;7.216;2022-09-29T05:46:50;27.17;;;14.18;;
65835;SDS011;52595;51.608;7.216;2022-09-29T05:49:16;25.63;;;14.18;;
65835;SDS011;52595;51.608;7.216;2022-09-29T05:51:43;23.90;;;13.20;;
65835;SDS011;52595;51.608;7.216;2022-09-29T05:54:08;27.23;;;14.18;;
65835;SDS011;52595;51.608;7.216;2022-09-29T05:56:34;27.60;;;13.70;;
65835;SDS011;52595;51.608;7.216;2022-09-29T05:58:59;27.27;;;13.57;;
65835;SDS011;52595;51.608;7.216;2022-09-29T06:01:25;26.05;;;12.82;;
65835;SDS011;52595;51.608;7.216;2022-09-29T06:03:54;25.17;;;12.90;;
65835;SDS011;52595;51.608;7.216;2022-09-29T06:06:21;21.80;;;12.57;;
65835;SDS011;52595;51.608;7.216;2022-09-29T06:08:51;25.25;;;13.68;;
65835;SDS011;52595;51.608;7.216;2022-09-29T06:11:21;22.42;;;12.98;;
65835;SDS011;52595;51.608;7.216;2022-09-29T06:16:15;21.95;;;11.82;;
65835;SDS011;52595;51.608;7.216;2022-09-29T06:18:42;22.00;;;11.55;;
65835;SDS011;52595;51.608;7.216;2022-09-29T06:21:26;24.10;;;12.55;;
65835;SDS011;52595;51.608;7.216;2022-09-29T06:23:53;24.30;;;12.55;;
65835;SDS011;52595;51.608;7.216;2022-09-29T06:26:19;22.42;;;12.70;;
65835;SDS011;52595;51.608;7.216;2022-09-29T06:28:46;23.75;;;13.02;;
65835;SDS011;52595;51.608;7.216;2022-09-29T06:31:13;24.25;;;12.85;;
65835;SDS011;52595;51.608;7.216;2022-09-29T06:33:40;25.25;;;13.13;;
65835;SDS011;52595;51.608;7.216;2022-09-29T06:36:27;25.42;;;13.52;;
65835;SDS011;52595;51.608;7.216;2022-09-29T06:39:14;27.75;;;13.63;;
65835;SDS011;52595;51.608;7.216;2022-09-29T06:41:40;24.92;;;14.30;;
65835;SDS011;52595;51.608;7.216;2022-09-29T06:44:08;32.15;;;16.00;;
65835;SDS011;52595;51.608;7.216;2022-09-29T06:46:34;34.30;;;16.13;;
65835;SDS011;52595;51.608;7.216;2022-09-29T06:48:59;33.88;;;16.08;;
65835;SDS011;52595;51.608;7.216;2022-09-29T06:51:25;31.08;;;15.77;;
65835;SDS011;52595;51.608;7.216;2022-09-29T06:53:50;31.50;;;15.40;;
65835;SDS011;52595;51.608;7.216;2022-09-29T06:56:16;27.00;;;14.35;;
65835;SDS011;52595;51.608;7.216;2022-09-29T06:58:43;30.00;;;15.60;;
65835;SDS011;52595;51.608;7.216;2022-09-29T07:01:09;34.25;;;16.52;;
65835;SDS011;52595;51.608;7.216;2022-09-29T07:03:34;37.63;;;18.40;;
65835;SDS011;52595;51.608;7.216;2022-09-29T07:06:03;38.75;;;18.88;;
65835;SDS011;52595;51.608;7.216;2022-09-29T07:08:29;36.00;;;18.45;;
65835;SDS011;52595;51.608;7.216;2022-09-29T07:10:55;39.80;;;20.00;;
65835;SDS011;52595;51.608;7.216;2022-09-29T07:13:21;39.60;;;21.63;;
65835;SDS011;52595;51.608;7.216;2022-09-29T07:15:46;35.97;;;20.35;;
65835;SDS011;52595;51.608;7.216;2022-09-29T07:18:12;33.03;;;17.92;;
65835;SDS011;52595;51.608;7.216;2022-09-29T07:20:38;34.47;;;19.27;;
65835;SDS011;52595;51.608;7.216;2022-09-29T07:23:04;31.98;;;16.95;;
65835;SDS011;52595;51.608;7.216;2022-09-29T07:25:32;33.80;;;18.30;;
65835;SDS011;52595;51.608;7.216;2022-09-29T07:27:58;43.80;;;19.38;;
65835;SDS011;52595;51.608;7.216;2022-09-29T07:30:24;36.85;;;18.25;;
65835;SDS011;52595;51.608;7.216;2022-09-29T07:32:51;37.42;;;18.42;;
65835;SDS011;52595;51.608;7.216;2022-09-29T07:35:18;33.53;;;18.35;;
65835;SDS011;52595;51.608;7.216;2022-09-29T07:37:49;41.17;;;20.00;;
65835;SDS011;52595;51.608;7.216;2022-09-29T07:40:22;41.92;;;20.63;;
65835;SDS011;52595;51.608;7.216;2022-09-29T07:42:48;42.38;;;21.45;;
65835;SDS011;52595;51.608;7.216;2022-09-29T07:45:14;38.97;;;20.73;;
65835;SDS011;52595;51.608;7.216;2022-09-29T07:47:40;38.67;;;21.10;;
65835;SDS011;52595;51.608;7.216;2022-09-29T07:50:05;33.55;;;19.42;;
65835;SDS011;52595;51.608;7.216;2022-09-29T07:52:31;32.17;;;18.45;;
65835;SDS011;52595;51.608;7.216;2022-09-29T07:54:56;32.58;;;18.00;;
65835;SDS011;52595;51.608;7.216;2022-09-29T07:57:22;32.10;;;18.45;;
65835;SDS011;52595;51.608;7.216;2022-09-29T07:59:47;30.40;;;18.80;;
65835;SDS011;52595;51.608;7.216;2022-09-29T08:02:12;31.02;;;17.23;;
65835;SDS011;52595;51.608;7.216;2022-09-29T08:04:38;30.83;;;17.35;;
65835;SDS011;52595;51.608;7.216;2022-09-29T08:07:03;28.90;;;16.95;;
65835;SDS011;52595;51.608;7.216;2022-09-29T08:09:28;28.55;;;16.85;;
65835;SDS011;52595;51.608;7.216;2022-09-29T08:11:54;29.40;;;17.15;;
65835;SDS011;52595;51.608;7.216;2022-09-29T08:14:19;26.08;;;16.33;;
65835;SDS011;52595;51.608;7.216;2022-09-29T08:16:44;27.95;;;16.45;;
65835;SDS011;52595;51.608;7.216;2022-09-29T08:19:10;26.90;;;16.58;;
65835;SDS011;52595;51.608;7.216;2022-09-29T08:21:35;25.27;;;15.52;;
65835;SDS011;52595;51.608;7.216;2022-09-29T08:24:01;28.27;;;16.02;;
65835;SDS011;52595;51.608;7.216;2022-09-29T08:26:31;27.08;;;15.27;;
65835;SDS011;52595;51.608;7.216;2022-09-29T08:31:27;24.73;;;14.63;;
65835;SDS011;52595;51.608;7.216;2022-09-29T08:33:52;20.98;;;14.45;;
65835;SDS011;52595;51.608;7.216;2022-09-29T08:36:21;24.15;;;14.55;;
65835;SDS011;52595;51.608;7.216;2022-09-29T08:38:50;19.70;;;13.20;;
65835;SDS011;52595;51.608;7.216;2022-09-29T08:43:57;21.75;;;13.45;;
65835;SDS011;52595;51.608;7.216;2022-09-29T08:48:54;21.83;;;11.80;;
65835;SDS011;52595;51.608;7.216;2022-09-29T08:51:33;18.90;;;11.43;;
65835;SDS011;52595;51.608;7.216;2022-09-29T08:54:06;18.00;;;10.70;;
65835;SDS011;52595;51.608;7.216;2022-09-29T08:56:37;15.73;;;11.15;;
65835;SDS011;52595;51.608;7.216;2022-09-29T08:59:03;17.35;;;11.73;;
65835;SDS011;52595;51.608;7.216;2022-09-29T09:04:00;16.40;;;10.23;;
65835;SDS011;52595;51.608;7.216;2022-09-29T09:06:33;20.55;;;10.90;;
65835;SDS011;52595;51.608;7.216;2022-09-29T09:17:33;14.77;;;9.27;;
65835;SDS011;52595;51.608;7.216;2022-09-29T09:20:40;10.05;;;7.38;;
65835;SDS011;52595;51.608;7.216;2022-09-29T09:25:38;11.35;;;7.40;;
65835;SDS011;52595;51.608;7.216;2022-09-29T09:33:58;10.55;;;6.85;;
65835;SDS011;52595;51.608;7.216;2022-09-29T09:36:42;8.98;;;5.50;;
65835;SDS011;52595;51.608;7.216;2022-09-29T09:40:13;10.18;;;5.65;;
65835;SDS011;52595;51.608;7.216;2022-09-29T09:42:07;8.93;;;5.70;;
65835;SDS011;52595;51.608;7.216;2022-09-29T09:44:40;8.10;;;5.28;;
65835;SDS011;52595;51.608;7.216;2022-09-29T09:47:31;7.47;;;5.10;;
65835;SDS011;52595;51.608;7.216;2022-09-29T09:50:12;8.73;;;4.63;;
65835;SDS011;52595;51.608;7.216;2022-09-29T09:52:52;7.30;;;4.50;;
65835;SDS011;52595;51.608;7.216;2022-09-29T09:55:25;6.28;;;3.47;;
65835;SDS011;52595;51.608;7.216;2022-09-29T10:00:59;7.72;;;3.90;;
65835;SDS011;52595;51.608;7.216;2022-09-29T10:03:26;7.97;;;4.22;;
65835;SDS011;52595;51.608;7.216;2022-09-29T10:05:52;7.90;;;4.22;;
65835;SDS011;52595;51.608;7.216;2022-09-29T10:10:55;6.10;;;4.15;;
65835;SDS011;52595;51.608;7.216;2022-09-29T10:13:23;7.95;;;4.20;;
65835;SDS011;52595;51.608;7.216;2022-09-29T10:15:52;3.60;;;2.15;;
65835;SDS011;52595;51.608;7.216;2022-09-29T10:18:29;2.88;;;1.70;;
65835;SDS011;52595;51.608;7.216;2022-09-29T10:21:00;5.85;;;3.40;;
65835;SDS011;52595;51.608;7.216;2022-09-29T10:23:26;6.47;;;3.20;;
65835;SDS011;52595;51.608;7.216;2022-09-29T10:28:46;5.05;;;3.60;;
65835;SDS011;52595;51.608;7.216;2022-09-29T10:31:26;8.98;;;3.97;;
65835;SDS011;52595;51.608;7.216;2022-09-29T10:34:02;6.80;;;3.33;;
65835;SDS011;52595;51.608;7.216;2022-09-29T10:36:47;6.68;;;3.83;;
65835;SDS011;52595;51.608;7.216;2022-09-29T10:42:31;5.40;;;3.95;;
65835;SDS011;52595;51.608;7.216;2022-09-29T10:50:22;6.38;;;4.15;;
65835;SDS011;52595;51.608;7.216;2022-09-29T10:52:54;8.68;;;3.67;;
65835;SDS011;52595;51.608;7.216;2022-09-29T10:55:22;7.57;;;3.15;;
65835;SDS011;52595;51.608;7.216;2022-09-29T10:57:53;4.43;;;2.90;;
65835;SDS011;52595;51.608;7.216;2022-09-29T11:00:28;5.38;;;2.83;;
65835;SDS011;52595;51.608;7.216;2022-09-29T11:03:05;5.82;;;2.75;;
65835;SDS011;52595;51.608;7.216;2022-09-29T11:05:39;5.57;;;2.75;;
65835;SDS011;52595;51.608;7.216;2022-09-29T11:08:16;3.67;;;2.40;;
65835;SDS011;52595;51.608;7.216;2022-09-29T11:10:43;4.13;;;2.40;;
65835;SDS011;52595;51.608;7.216;2022-09-29T11:13:33;5.38;;;2.40;;
65835;SDS011;52595;51.608;7.216;2022-09-29T11:16:23;4.15;;;2.72;;
65835;SDS011;52595;51.608;7.216;2022-09-29T11:18:58;5.22;;;2.58;;
65835;SDS011;52595;51.608;7.216;2022-09-29T11:27:13;3.67;;;2.38;;
65835;SDS011;52595;51.608;7.216;2022-09-29T11:29:48;4.90;;;2.33;;
65835;SDS011;52595;51.608;7.216;2022-09-29T11:35:52;5.40;;;2.60;;
65835;SDS011;52595;51.608;7.216;2022-09-29T11:37:59;4.22;;;2.35;;
65835;SDS011;52595;51.608;7.216;2022-09-29T11:49:13;7.47;;;4.20;;
65835;SDS011;52595;51.608;7.216;2022-09-29T11:55:23;8.38;;;3.95;;
65835;SDS011;52595;51.608;7.216;2022-09-29T11:57:54;6.13;;;4.05;;
65835;SDS011;52595;51.608;7.216;2022-09-29T12:06:34;6.57;;;3.35;;
65835;SDS011;52595;51.608;7.216;2022-09-29T12:14:21;7.40;;;3.30;;
65835;SDS011;52595;51.608;7.216;2022-09-29T12:16:53;5.82;;;3.30;;
65835;SDS011;52595;51.608;7.216;2022-09-29T12:21:51;6.07;;;3.60;;
65835;SDS011;52595;51.608;7.216;2022-09-29T12:24:20;7.45;;;3.55;;
65835;SDS011;52595;51.608;7.216;2022-09-29T12:26:53;6.00;;;3.70;;
65835;SDS011;52595;51.608;7.216;2022-09-29T12:29:28;8.48;;;3.80;;
65835;SDS011;52595;51.608;7.216;2022-09-29T12:32:01;6.35;;;3.40;;
65835;SDS011;52595;51.608;7.216;2022-09-29T12:37:35;3.90;;;2.88;;
65835;SDS011;52595;51.608;7.216;2022-09-29T12:40:19;5.22;;;2.83;;
65835;SDS011;52595;51.608;7.216;2022-09-29T12:43:20;6.18;;;3.17;;
65835;SDS011;52595;51.608;7.216;2022-09-29T12:51:35;5.60;;;2.88;;
65835;SDS011;52595;51.608;7.216;2022-09-29T12:57:04;4.68;;;2.90;;
65835;SDS011;52595;51.608;7.216;2022-09-29T13:10:21;6.57;;;3.30;;
65835;SDS011;52595;51.608;7.216;2022-09-29T13:13:09;5.78;;;3.10;;
65835;SDS011;52595;51.608;7.216;2022-09-29T13:19:15;5.60;;;3.08;;
65835;SDS011;52595;51.608;7.216;2022-09-29T13:27:39;7.82;;;3.20;;
65835;SDS011;52595;51.608;7.216;2022-09-29T13:32:38;7.45;;;3.40;;
65835;SDS011;52595;51.608;7.216;2022-09-29T13:35:34;5.82;;;3.33;;
65835;SDS011;52595;51.608;7.216;2022-09-29T13:54:29;7.05;;;3.60;;
65835;SDS011;52595;51.608;7.216;2022-09-29T13:57:05;7.25;;;3.83;;
65835;SDS011;52595;51.608;7.216;2022-09-29T13:59:41;9.07;;;4.22;;
65835;SDS011;52595;51.608;7.216;2022-09-29T14:07:47;9.68;;;4.97;;
65835;SDS011;52595;51.608;7.216;2022-09-29T14:12:59;8.00;;;4.40;;
65835;SDS011;52595;51.608;7.216;2022-09-29T14:15:26;8.93;;;4.40;;
65835;SDS011;52595;51.608;7.216;2022-09-29T14:17:58;8.27;;;4.60;;
65835;SDS011;52595;51.608;7.216;2022-09-29T14:20:29;7.18;;;4.45;;
65835;SDS011;52595;51.608;7.216;2022-09-29T14:23:03;11.07;;;4.50;;
65835;SDS011;52595;51.608;7.216;2022-09-29T14:25:53;6.22;;;4.32;;
65835;SDS011;52595;51.608;7.216;2022-09-29T14:28:19;6.88;;;4.50;;
65835;SDS011;52595;51.608;7.216;2022-09-29T14:30:49;10.10;;;5.00;;
65835;SDS011;52595;51.608;7.216;2022-09-29T14:33:18;6.53;;;4.40;;
65835;SDS011;52595;51.608;7.216;2022-09-29T14:41:22;5.18;;;3.45;;
65835;SDS011;52595;51.608;7.216;2022-09-29T14:44:04;8.30;;;4.00;;
65835;SDS011;52595;51.608;7.216;2022-09-29T14:49:31;6.60;;;4.18;;
65835;SDS011;52595;51.608;7.216;2022-09-29T15:01:35;6.85;;;3.70;;
65835;SDS011;52595;51.608;7.216;2022-09-29T15:04:20;7.72;;;3.15;;
65835;SDS011;52595;51.608;7.216;2022-09-29T15:06:46;6.78;;;3.15;;
65835;SDS011;52595;51.608;7.216;2022-09-29T15:09:15;6.80;;;4.00;;
65835;SDS011;52595;51.608;7.216;2022-09-29T15:11:43;6.13;;;3.85;;
65835;SDS011;52595;51.608;7.216;2022-09-29T15:19:46;5.72;;;3.53;;
65835;SDS011;52595;51.608;7.216;2022-09-29T15:27:54;5.65;;;2.55;;
65835;SDS011;52595;51.608;7.216;2022-09-29T15:30:26;6.30;;;2.60;;
65835;SDS011;52595;51.608;7.216;2022-09-29T15:32:53;5.40;;;2.33;;
65835;SDS011;52595;51.608;7.216;2022-09-29T15:35:32;4.68;;;2.50;;
65835;SDS011;52595;51.608;7.216;2022-09-29T15:40:53;3.15;;;2.08;;
65835;SDS011;52595;51.608;7.216;2022-09-29T15:43:21;5.03;;;2.17;;
65835;SDS011;52595;51.608;7.216;2022-09-29T15:46:23;4.72;;;2.13;;
65835;SDS011;52595;51.608;7.216;2022-09-29T15:49:09;4.28;;;2.50;;
65835;SDS011;52595;51.608;7.216;2022-09-29T15:51:40;3.10;;;2.20;;
65835;SDS011;52595;51.608;7.216;2022-09-29T15:54:09;4.05;;;2.20;;
65835;SDS011;52595;51.608;7.216;2022-09-29T15:56:36;3.30;;;2.10;;
65835;SDS011;52595;51.608;7.216;2022-09-29T15:59:36;4.53;;;2.50;;
65835;SDS011;52595;51.608;7.216;2022-09-29T16:02:10;3.15;;;1.88;;
65835;SDS011;52595;51.608;7.216;2022-09-29T16:04:41;4.07;;;2.00;;
65835;SDS011;52595;51.608;7.216;2022-09-29T16:07:15;3.17;;;1.88;;
65835;SDS011;52595;51.608;7.216;2022-09-29T16:09:45;3.55;;;1.90;;
65835;SDS011;52595;51.608;7.216;2022-09-29T16:12:12;3.70;;;2.10;;
65835;SDS011;52595;51.608;7.216;2022-09-29T16:14:41;3.88;;;1.90;;
65835;SDS011;52595;51.608;7.216;2022-09-29T16:17:08;5.07;;;1.95;;
65835;SDS011;52595;51.608;7.216;2022-09-29T16:19:35;4.95;;;2.20;;
65835;SDS011;52595;51.608;7.216;2022-09-29T16:22:13;5.65;;;2.20;;
65835;SDS011;52595;51.608;7.216;2022-09-29T16:25:44;2.47;;;1.90;;
65835;SDS011;52595;51.608;7.216;2022-09-29T16:27:53;3.55;;;2.10;;
65835;SDS011;52595;51.608;7.216;2022-09-29T16:30:31;4.68;;;2.00;;
65835;SDS011;52595;51.608;7.216;2022-09-29T16:33:19;4.10;;;2.08;;
65835;SDS011;52595;51.608;7.216;2022-09-29T16:38:33;5.47;;;1.98;;
65835;SDS011;52595;51.608;7.216;2022-09-29T16:41:23;3.55;;;1.85;;
65835;SDS011;52595;51.608;7.216;2022-09-29T16:49:14;3.67;;;2.30;;
65835;SDS011;52595;51.608;7.216;2022-09-29T16:51:43;6.00;;;2.50;;
65835;SDS011;52595;51.608;7.216;2022-09-29T16:54:45;4.97;;;2.10;;
65835;SDS011;52595;51.608;7.216;2022-09-29T16:57:24;4.13;;;2.25;;
65835;SDS011;52595;51.608;7.216;2022-09-29T16:59:56;5.60;;;2.58;;
65835;SDS011;52595;51.608;7.216;2022-09-29T17:02:23;3.03;;;2.05;;
65835;SDS011;52595;51.608;7.216;2022-09-29T17:04:53;3.00;;;2.28;;
65835;SDS011;52595;51.608;7.216;2022-09-29T17:07:20;4.97;;;2.60;;
65835;SDS011;52595;51.608;7.216;2022-09-29T17:09:48;4.05;;;2.38;;
65835;SDS011;52595;51.608;7.216;2022-09-29T17:12:16;4.15;;;2.50;;
65835;SDS011;52595;51.608;7.216;2022-09-29T17:14:42;4.90;;;2.60;;
65835;SDS011;52595;51.608;7.216;2022-09-29T17:17:14;5.85;;;2.58;;
65835;SDS011;52595;51.608;7.216;2022-09-29T17:19:50;6.57;;;3.17;;
65835;SDS011;52595;51.608;7.216;2022-09-29T17:22:30;6.03;;;3.83;;
65835;SDS011;52595;51.608;7.216;2022-09-29T17:25:01;4.95;;;3.00;;
65835;SDS011;52595;51.608;7.216;2022-09-29T17:27:27;4.57;;;2.90;;
65835;SDS011;52595;51.608;7.216;2022-09-29T17:30:13;6.75;;;3.60;;
65835;SDS011;52595;51.608;7.216;2022-09-29T17:32:42;5.60;;;3.70;;
65835;SDS011;52595;51.608;7.216;2022-09-29T17:35:10;8.57;;;3.63;;
65835;SDS011;52595;51.608;7.216;2022-09-29T17:37:38;7.65;;;4.10;;
65835;SDS011;52595;51.608;7.216;2022-09-29T17:40:15;8.70;;;5.28;;
65835;SDS011;52595;51.608;7.216;2022-09-29T17:42:48;5.53;;;3.80;;
65835;SDS011;52595;51.608;7.216;2022-09-29T17:45:15;5.72;;;3.50;;
65835;SDS011;52595;51.608;7.216;2022-09-29T17:47:42;5.57;;;3.78;;
65835;SDS011;52595;51.608;7.216;2022-09-29T17:50:16;7.22;;;4.80;;
65835;SDS011;52595;51.608;7.216;2022-09-29T17:53:15;11.07;;;6.07;;
65835;SDS011;52595;51.608;7.216;2022-09-29T17:55:43;7.53;;;4.38;;
65835;SDS011;52595;51.608;7.216;2022-09-29T17:58:11;7.45;;;4.55;;
65835;SDS011;52595;51.608;7.216;2022-09-29T18:00:40;11.52;;;6.80;;
65835;SDS011;52595;51.608;7.216;2022-09-29T18:03:08;8.88;;;5.57;;
65835;SDS011;52595;51.608;7.216;2022-09-29T18:05:36;8.40;;;5.25;;
65835;SDS011;52595;51.608;7.216;2022-09-29T18:08:06;7.25;;;4.80;;
65835;SDS011;52595;51.608;7.216;2022-09-29T18:13:08;12.10;;;6.40;;
65835;SDS011;52595;51.608;7.216;2022-09-29T18:15:34;12.93;;;8.38;;
65835;SDS011;52595;51.608;7.216;2022-09-29T18:18:01;15.32;;;10.27;;
65835;SDS011;52595;51.608;7.216;2022-09-29T18:20:28;15.35;;;9.38;;
65835;SDS011;52595;51.608;7.216;2022-09-29T18:22:55;14.43;;;9.38;;
65835;SDS011;52595;51.608;7.216;2022-09-29T18:25:25;14.00;;;8.75;;
65835;SDS011;52595;51.608;7.216;2022-09-29T18:27:51;11.35;;;7.80;;
65835;SDS011;52595;51.608;7.216;2022-09-29T18:30:18;12.50;;;7.95;;
65835;SDS011;52595;51.608;7.216;2022-09-29T18:32:47;11.13;;;7.95;;
65835;SDS011;52595;51.608;7.216;2022-09-29T18:35:18;13.50;;;8.80;;